createdAt,value
2022-11-27T00:02:09.140Z,19.67
2022-11-27T00:05:12.099Z,20.17
2022-11-27T00:08:15.005Z,18.93
2022-11-27T00:11:19.608Z,19.60
2022-11-27T00:14:23.848Z,18.77
2022-11-27T00:17:26.783Z,20.60
2022-11-27T00:20:29.995Z,21.77
2022-11-27T00:23:34.186Z,22.00
2022-11-27T00:26:38.266Z,22.47
2022-11-27T00:29:42.738Z,20.70
2022-11-27T00:32:45.892Z,22.67
2022-11-27T00:35:48.865Z,22.40
2022-11-27T00:38:51.794Z,23.77
2022-11-27T00:41:54.719Z,23.80
2022-11-27T00:44:59.081Z,24.77
2022-11-27T00:48:02.020Z,22.63
2022-11-27T00:51:07.335Z,23.33
2022-11-27T00:54:10.659Z,23.03
2022-11-27T00:57:13.649Z,22.53
2022-11-27T01:00:19.972Z,23.63
2022-11-27T01:03:22.858Z,23.13
2022-11-27T01:06:27.116Z,24.07
2022-11-27T01:09:30.021Z,25.47
2022-11-27T01:12:32.939Z,24.07
2022-11-27T01:15:37.213Z,23.37
2022-11-27T01:18:41.917Z,23.73
2022-11-27T01:21:44.819Z,22.37
2022-11-27T01:24:47.799Z,22.33
2022-11-27T01:27:50.671Z,21.80
2022-11-27T01:30:55.089Z,19.13
2022-11-27T01:34:00.055Z,20.00
2022-11-27T01:37:02.958Z,21.83
2022-11-27T01:40:07.228Z,21.70
2022-11-27T01:43:15.044Z,19.90
2022-11-27T01:46:38.664Z,21.17
2022-11-27T01:49:47.023Z,20.53
2022-11-27T01:52:53.205Z,19.07
2022-11-27T01:56:00.304Z,18.20
2022-11-27T01:59:04.909Z,18.53
2022-11-27T02:02:09.302Z,19.03
2022-11-27T02:05:16.293Z,17.17
2022-11-27T02:08:19.981Z,17.57
2022-11-27T02:11:29.292Z,17.33
2022-11-27T02:14:41.884Z,17.13
2022-11-27T02:17:52.873Z,16.90
2022-11-27T02:21:05.072Z,18.03
2022-11-27T02:24:49.477Z,15.60
2022-11-27T02:28:25.898Z,16.67
2022-11-27T02:31:38.594Z,18.33
2022-11-27T02:34:49.692Z,18.67
2022-11-27T02:37:58.425Z,20.53
2022-11-27T02:41:06.645Z,20.83
2022-11-27T02:44:10.711Z,21.10
2022-11-27T02:47:15.895Z,18.80
2022-11-27T02:50:22.827Z,19.57
2022-11-27T02:53:31.971Z,19.27
2022-11-27T02:56:36.099Z,18.87
2022-11-27T02:59:40.209Z,19.53
2022-11-27T03:02:49.000Z,19.07
2022-11-27T03:05:55.624Z,18.07
2022-11-27T03:09:02.595Z,19.50
2022-11-27T03:12:08.187Z,19.87
2022-11-27T03:15:12.263Z,18.63
2022-11-27T03:18:22.235Z,18.23
2022-11-27T03:21:30.536Z,17.67
2022-11-27T03:24:36.460Z,18.27
2022-11-27T03:27:45.420Z,17.03
2022-11-27T03:30:48.676Z,17.23
2022-11-27T03:33:54.596Z,17.47
2022-11-27T03:36:57.533Z,18.17
2022-11-27T03:40:00.556Z,17.07
2022-11-27T03:43:10.491Z,18.43
2022-11-27T03:46:23.666Z,17.30
2022-11-27T03:49:36.901Z,16.70
2022-11-27T03:52:47.528Z,18.47
2022-11-27T03:55:56.108Z,17.50
2022-11-27T03:59:04.492Z,16.47
2022-11-27T04:02:07.386Z,15.67
2022-11-27T04:05:12.491Z,17.47
2022-11-27T04:08:15.375Z,16.40
2022-11-27T04:11:18.300Z,15.60
2022-11-27T04:14:21.182Z,15.70
2022-11-27T04:17:24.119Z,16.20
2022-11-27T04:20:29.057Z,15.70
2022-11-27T04:23:31.939Z,17.57
2022-11-27T04:26:34.844Z,15.83
2022-11-27T04:29:37.724Z,16.93
2022-11-27T04:32:40.675Z,15.43
2022-11-27T04:35:45.155Z,15.90
2022-11-27T04:38:48.253Z,15.60
2022-11-27T04:41:51.295Z,16.73
2022-11-27T04:44:54.151Z,14.57
2022-11-27T04:47:57.038Z,15.30
2022-11-27T04:51:01.280Z,15.60
2022-11-27T04:54:04.568Z,14.60
2022-11-27T04:57:07.760Z,14.83
2022-11-27T05:00:11.851Z,13.90
2022-11-27T05:03:14.928Z,15.47
2022-11-27T05:06:19.549Z,14.37
2022-11-27T05:09:22.432Z,15.27
2022-11-27T05:12:25.349Z,14.87
2022-11-27T05:15:28.239Z,14.93
2022-11-27T05:18:31.129Z,15.10
2022-11-27T05:21:35.647Z,14.07
2022-11-27T05:24:39.040Z,14.07
2022-11-27T05:27:42.133Z,14.60
2022-11-27T05:30:45.125Z,13.90
2022-11-27T05:33:47.983Z,14.27
2022-11-27T05:36:52.253Z,14.47
2022-11-27T05:39:55.108Z,15.20
2022-11-27T05:42:58.017Z,16.10
2022-11-27T05:46:00.957Z,15.83
2022-11-27T05:49:03.831Z,15.23
2022-11-27T05:52:08.057Z,15.40
2022-11-27T05:55:11.163Z,15.40
2022-11-27T05:58:14.039Z,14.17
2022-11-27T06:01:19.333Z,13.80
2022-11-27T06:04:22.256Z,15.33
2022-11-27T06:07:26.526Z,16.10
2022-11-27T06:10:29.424Z,14.73
2022-11-27T06:13:32.287Z,15.10
2022-11-27T06:16:35.220Z,14.37
2022-11-27T06:19:38.452Z,15.33
2022-11-27T06:22:42.694Z,14.57
2022-11-27T06:25:45.564Z,14.73
2022-11-27T06:28:50.053Z,14.77
2022-11-27T06:31:53.039Z,15.03
2022-11-27T06:34:55.982Z,14.03
2022-11-27T06:38:00.241Z,14.17
2022-11-27T06:41:04.416Z,14.43
2022-11-27T06:44:07.369Z,13.37
2022-11-27T06:47:10.272Z,14.00
2022-11-27T06:50:13.309Z,16.07
2022-11-27T06:53:17.596Z,17.80
2022-11-27T06:56:23.044Z,16.53
2022-11-27T06:59:25.998Z,17.07
2022-11-27T07:02:30.185Z,15.70
2022-11-27T07:05:33.158Z,16.03
2022-11-27T07:08:37.895Z,14.63
2022-11-27T07:11:41.304Z,13.17
2022-11-27T07:14:44.216Z,14.77
2022-11-27T07:17:47.143Z,14.63
2022-11-27T07:20:56.393Z,13.43
2022-11-27T07:24:01.823Z,12.47
2022-11-27T07:27:04.814Z,11.93
2022-11-27T07:30:09.003Z,11.10
2022-11-27T07:33:12.000Z,11.57
2022-11-27T07:36:17.091Z,10.50
2022-11-27T07:39:39.389Z,9.73
2022-11-27T07:42:44.381Z,9.20
2022-11-27T07:45:47.364Z,10.07
2022-11-27T07:48:50.615Z,10.10
2022-11-27T07:51:53.500Z,10.07
2022-11-27T07:54:57.747Z,10.60
2022-11-27T07:58:00.693Z,9.67
2022-11-27T08:01:07.735Z,9.97
2022-11-27T08:04:10.708Z,11.50
2022-11-27T08:07:13.957Z,10.97
2022-11-27T08:10:18.348Z,10.17
2022-11-27T08:13:21.296Z,10.57
2022-11-27T08:16:24.374Z,10.13
2022-11-27T08:19:27.351Z,10.37
2022-11-27T08:22:30.219Z,12.73
2022-11-27T08:25:34.515Z,12.30
2022-11-27T08:28:38.030Z,12.53
2022-11-27T08:31:40.947Z,11.17
2022-11-27T08:34:43.922Z,11.20
2022-11-27T08:37:46.766Z,10.30
2022-11-27T08:40:57.319Z,10.27
2022-11-27T08:44:00.466Z,9.07
2022-11-27T08:47:03.330Z,9.30
2022-11-27T08:50:07.394Z,9.03
2022-11-27T08:53:10.295Z,8.57
2022-11-27T08:56:17.601Z,9.33
2022-11-27T08:59:21.174Z,8.50
2022-11-27T09:02:24.073Z,7.67
2022-11-27T09:05:27.337Z,8.63
2022-11-27T09:08:30.240Z,7.77
2022-11-27T09:11:36.622Z,6.83
2022-11-27T09:14:40.147Z,6.77
2022-11-27T09:17:43.578Z,7.93
2022-11-27T09:20:46.551Z,6.63
2022-11-27T09:23:53.192Z,7.97
2022-11-27T09:26:57.644Z,8.47
2022-11-27T09:30:00.814Z,8.83
2022-11-27T09:33:05.404Z,10.73
2022-11-27T09:36:10.370Z,9.97
2022-11-27T09:39:15.529Z,9.03
2022-11-27T09:42:35.079Z,8.03
2022-11-27T09:45:45.073Z,7.50
2022-11-27T09:48:51.616Z,5.67
2022-11-27T09:51:57.456Z,5.50
2022-11-27T09:55:10.819Z,5.07
2022-11-27T09:58:19.578Z,5.37
2022-11-27T10:01:30.970Z,4.67
2022-11-27T10:04:57.813Z,5.23
2022-11-27T10:08:21.028Z,5.30
2022-11-27T10:11:30.528Z,6.30
2022-11-27T10:14:46.344Z,6.23
2022-11-27T10:17:55.107Z,6.10
2022-11-27T10:21:01.944Z,6.57
2022-11-27T10:24:17.131Z,7.27
2022-11-27T10:27:24.807Z,8.40
2022-11-27T10:30:31.905Z,7.87
2022-11-27T10:33:42.100Z,7.10
2022-11-27T10:36:49.944Z,6.07
2022-11-27T10:39:56.291Z,6.73
2022-11-27T10:43:05.629Z,6.20
2022-11-27T10:46:16.090Z,6.17
2022-11-27T10:49:19.623Z,5.60
2022-11-27T10:52:27.828Z,6.13
2022-11-27T10:55:48.260Z,6.40
2022-11-27T10:58:56.320Z,6.50
2022-11-27T11:02:01.726Z,6.53
2022-11-27T11:05:37.278Z,5.77
2022-11-27T11:08:37.591Z,5.37
2022-11-27T11:11:40.556Z,5.43
2022-11-27T11:14:51.890Z,5.80
2022-11-27T11:17:56.256Z,5.47
2022-11-27T11:21:01.506Z,4.93
2022-11-27T11:24:07.307Z,5.53
2022-11-27T11:27:16.214Z,5.30
2022-11-27T11:30:24.312Z,4.97
2022-11-27T11:33:29.564Z,5.40
2022-11-27T11:36:33.000Z,4.97
2022-11-27T11:39:45.217Z,5.10
2022-11-27T11:42:54.487Z,4.70
2022-11-27T11:46:09.483Z,4.43
2022-11-27T11:49:23.664Z,4.83
2022-11-27T11:52:41.347Z,5.43
2022-11-27T11:55:54.550Z,5.63
2022-11-27T11:58:59.544Z,5.03
2022-11-27T12:02:31.764Z,4.27
2022-11-27T12:05:43.348Z,4.67
2022-11-27T12:08:56.023Z,4.53
2022-11-27T12:12:04.739Z,4.70
2022-11-27T12:15:19.174Z,4.30
2022-11-27T12:18:30.394Z,5.00
2022-11-27T12:21:45.109Z,5.43
2022-11-27T12:24:57.215Z,5.10
2022-11-27T12:28:12.859Z,5.33
2022-11-27T12:31:29.384Z,5.27
2022-11-27T12:34:45.080Z,4.73
2022-11-27T12:38:01.942Z,5.70
2022-11-27T12:41:24.466Z,5.90
2022-11-27T12:44:34.094Z,5.67
2022-11-27T12:47:43.233Z,4.90
2022-11-27T12:50:51.331Z,5.87
2022-11-27T12:54:00.519Z,5.10
2022-11-27T12:57:09.198Z,5.30
2022-11-27T13:00:17.881Z,6.93
2022-11-27T13:03:29.586Z,6.43
2022-11-27T13:06:37.167Z,7.83
2022-11-27T13:09:48.063Z,6.40
2022-11-27T13:12:57.058Z,5.87
2022-11-27T13:16:05.336Z,5.87
2022-11-27T13:19:16.202Z,6.93
2022-11-27T13:22:29.436Z,7.17
2022-11-27T13:25:37.176Z,6.40
2022-11-27T13:28:44.450Z,7.47
2022-11-27T13:31:54.647Z,6.50
2022-11-27T13:35:00.757Z,7.30
2022-11-27T13:38:09.732Z,7.63
2022-11-27T13:41:23.322Z,7.37
2022-11-27T13:44:28.564Z,7.73
2022-11-27T13:47:38.854Z,8.70
2022-11-27T13:50:45.666Z,8.13
2022-11-27T13:53:48.763Z,9.30
2022-11-27T13:56:52.993Z,8.53
2022-11-27T13:59:58.214Z,7.47
2022-11-27T14:03:01.408Z,8.77
2022-11-27T14:06:15.950Z,9.23
2022-11-27T14:09:18.848Z,8.77
2022-11-27T14:12:26.623Z,8.57
2022-11-27T14:15:31.890Z,9.93
2022-11-27T14:18:35.731Z,9.07
2022-11-27T14:21:42.699Z,11.23
2022-11-27T14:24:47.060Z,10.33
2022-11-27T14:27:59.561Z,10.57
2022-11-27T14:31:03.602Z,10.87
2022-11-27T14:34:24.671Z,10.87
2022-11-27T14:37:29.282Z,11.07
2022-11-27T14:40:32.163Z,10.83
2022-11-27T14:43:36.493Z,11.37
2022-11-27T14:46:39.430Z,12.40
2022-11-27T14:49:42.547Z,12.53
2022-11-27T14:52:51.836Z,13.03
2022-11-27T14:55:57.872Z,11.87
2022-11-27T14:59:02.967Z,12.63
2022-11-27T15:02:18.483Z,11.43
2022-11-27T15:05:24.564Z,12.87
2022-11-27T15:08:28.888Z,11.70
2022-11-27T15:11:54.547Z,13.47
2022-11-27T15:15:00.669Z,12.50
2022-11-27T15:18:05.849Z,14.97
2022-11-27T15:21:12.670Z,14.20
2022-11-27T15:24:30.989Z,13.97
2022-11-27T15:27:44.951Z,14.30
2022-11-27T15:30:49.413Z,13.10
2022-11-27T15:34:06.669Z,11.83
2022-11-27T15:37:22.227Z,11.73
2022-11-27T15:40:35.941Z,11.47
2022-11-27T15:43:38.796Z,10.93
2022-11-27T15:46:43.445Z,10.83
2022-11-27T15:49:46.366Z,10.80
2022-11-27T15:52:49.366Z,13.07
2022-11-27T15:55:52.247Z,11.13
2022-11-27T15:58:55.121Z,11.83
2022-11-27T16:01:59.678Z,11.50
2022-11-27T16:05:03.740Z,15.80
2022-11-27T16:08:07.757Z,12.60
2022-11-27T16:11:13.548Z,11.80
2022-11-27T16:14:16.424Z,9.63
2022-11-27T16:17:20.679Z,9.17
2022-11-27T16:20:23.579Z,9.63
2022-11-27T16:23:26.455Z,9.73
2022-11-27T16:26:29.555Z,9.73
2022-11-27T16:29:32.883Z,9.40
2022-11-27T16:32:39.856Z,10.03
2022-11-27T16:35:42.732Z,9.37
2022-11-27T16:38:46.636Z,10.23
2022-11-27T16:41:49.563Z,9.17
2022-11-27T16:44:52.437Z,10.10
2022-11-27T16:47:56.856Z,11.47
2022-11-27T16:51:03.638Z,11.57
2022-11-27T16:54:08.937Z,10.17
2022-11-27T16:57:11.848Z,11.17
2022-11-27T17:00:15.745Z,10.63
2022-11-27T17:03:20.116Z,10.87
2022-11-27T17:06:25.739Z,10.57
2022-11-27T17:09:29.397Z,9.87
2022-11-27T17:12:33.832Z,10.37
2022-11-27T17:15:40.527Z,11.60
2022-11-27T17:18:46.079Z,8.70
2022-11-27T17:21:48.938Z,9.67
2022-11-27T17:24:51.853Z,10.47
2022-11-27T17:27:54.897Z,9.90
2022-11-27T17:30:57.764Z,10.23
2022-11-27T17:34:02.172Z,10.73
2022-11-27T17:37:05.112Z,12.00
2022-11-27T17:40:09.445Z,11.57
2022-11-27T17:43:12.391Z,12.23
2022-11-27T17:46:18.998Z,12.63
2022-11-27T17:49:23.272Z,12.33
2022-11-27T17:52:26.151Z,12.33
2022-11-27T17:55:29.266Z,14.53
2022-11-27T17:58:32.405Z,14.43
2022-11-27T18:01:35.375Z,14.20
2022-11-27T18:04:39.819Z,11.30
2022-11-27T18:07:42.754Z,11.57
2022-11-27T18:10:45.732Z,11.50
2022-11-27T18:13:49.843Z,10.47
2022-11-27T18:16:52.812Z,12.43
2022-11-27T18:19:58.967Z,10.70
2022-11-27T18:23:01.962Z,10.80
2022-11-27T18:26:07.920Z,11.20
2022-11-27T18:29:11.845Z,11.40
2022-11-27T18:32:16.915Z,9.90
2022-11-27T18:35:23.915Z,9.13
2022-11-27T18:38:26.954Z,11.03
2022-11-27T18:41:30.131Z,11.33
2022-11-27T18:44:34.689Z,10.43
2022-11-27T18:47:40.004Z,10.40
2022-11-27T18:50:44.763Z,10.93
2022-11-27T18:53:48.333Z,10.57
2022-11-27T18:56:51.511Z,10.00
2022-11-27T18:59:54.456Z,10.47
2022-11-27T19:02:57.405Z,10.30
2022-11-27T19:06:02.656Z,11.87
2022-11-27T19:09:05.870Z,11.13
2022-11-27T19:12:08.822Z,9.47
2022-11-27T19:15:12.456Z,10.27
2022-11-27T19:18:15.337Z,10.20
2022-11-27T19:21:21.190Z,10.40
2022-11-27T19:24:24.097Z,10.00
2022-11-27T19:27:27.020Z,9.83
2022-11-27T19:30:33.881Z,10.80
2022-11-27T19:33:38.049Z,12.23
2022-11-27T19:36:42.336Z,11.10
2022-11-27T19:39:46.021Z,12.80
2022-11-27T19:42:54.589Z,14.10
2022-11-27T19:46:00.969Z,12.10
2022-11-27T19:49:05.844Z,11.57
2022-11-27T19:52:10.494Z,11.50
2022-11-27T19:55:13.386Z,11.13
2022-11-27T19:58:16.262Z,12.90
2022-11-27T20:01:20.806Z,12.20
2022-11-27T20:04:23.789Z,11.70
2022-11-27T20:07:28.285Z,12.63
2022-11-27T20:10:31.249Z,12.53
2022-11-27T20:13:34.343Z,9.80
2022-11-27T20:16:38.290Z,11.33
2022-11-27T20:19:41.771Z,12.73
2022-11-27T20:22:46.483Z,11.80
2022-11-27T20:25:50.483Z,12.37
2022-11-27T20:28:54.150Z,10.50
2022-11-27T20:31:57.273Z,12.43
2022-11-27T20:35:00.315Z,11.87
2022-11-27T20:38:04.626Z,11.40
2022-11-27T20:41:08.438Z,12.40
2022-11-27T20:44:12.242Z,12.03
2022-11-27T20:47:15.116Z,11.07
2022-11-27T20:50:18.188Z,12.43
2022-11-27T20:53:22.429Z,11.73
2022-11-27T20:56:25.891Z,13.10
2022-11-27T20:59:28.785Z,13.67
2022-11-27T21:02:31.704Z,12.63
2022-11-27T21:05:34.726Z,11.83
2022-11-27T21:08:38.987Z,11.73
2022-11-27T21:11:44.362Z,11.87
2022-11-27T21:14:47.554Z,13.03
2022-11-27T21:17:50.590Z,13.70
2022-11-27T21:20:53.656Z,13.07
2022-11-27T21:23:58.686Z,12.10
2022-11-27T21:27:01.721Z,12.40
2022-11-27T21:30:05.199Z,14.23
2022-11-27T21:33:08.051Z,11.87
2022-11-27T21:36:10.944Z,11.73
2022-11-27T21:39:21.137Z,12.17
2022-11-27T21:42:24.172Z,11.43
2022-11-27T21:45:27.188Z,12.73
2022-11-27T21:48:31.733Z,11.83
2022-11-27T21:51:34.648Z,12.87
2022-11-27T21:54:39.011Z,12.13
2022-11-27T21:57:42.492Z,11.70
2022-11-27T22:00:45.836Z,12.43
2022-11-27T22:03:50.202Z,12.20
2022-11-27T22:06:53.138Z,11.63
2022-11-27T22:09:57.455Z,11.70
2022-11-27T22:13:00.331Z,11.27
2022-11-27T22:16:08.916Z,10.90
2022-11-27T22:19:11.833Z,11.97
2022-11-27T22:22:14.766Z,11.07
2022-11-27T22:25:19.268Z,11.37
2022-11-27T22:28:22.392Z,10.83
2022-11-27T22:31:26.943Z,11.30
2022-11-27T22:34:29.872Z,11.50
2022-11-27T22:37:33.008Z,10.47
2022-11-27T22:40:37.396Z,10.80
2022-11-27T22:43:40.922Z,9.83
2022-11-27T22:46:44.623Z,9.93
2022-11-27T22:49:47.518Z,10.03
2022-11-27T22:52:52.586Z,10.20
2022-11-27T22:56:04.820Z,10.53
2022-11-27T23:02:31.382Z,10.03
2022-11-27T23:05:34.405Z,8.57
2022-11-27T23:08:37.273Z,9.20
2022-11-27T23:11:41.775Z,9.27
2022-11-27T23:14:44.708Z,10.60
2022-11-27T23:17:47.732Z,9.67
2022-11-27T23:20:50.594Z,10.27
2022-11-27T23:23:53.828Z,9.70
2022-11-27T23:26:58.082Z,9.00
2022-11-27T23:30:00.961Z,10.87
2022-11-27T23:33:04.382Z,9.30
2022-11-27T23:36:08.285Z,9.70
2022-11-27T23:39:13.559Z,10.10
2022-11-27T23:42:17.812Z,9.43
2022-11-27T23:45:20.694Z,9.40
2022-11-27T23:48:23.578Z,9.33
2022-11-27T23:51:29.205Z,9.80
2022-11-27T23:54:32.080Z,9.03
2022-11-27T23:57:36.344Z,10.13
